sensor_id;sensor_type;location;lat;lon;timestamp;P1;durP1;ratioP1;P2;durP2;ratioP2
18505;SDS011;9382;53.242;10.438;2023-12-28T00:02:03;4.43;;;2.60;;
18505;SDS011;9382;53.242;10.438;2023-12-28T00:04:31;2.80;;;2.60;;
18505;SDS011;9382;53.242;10.438;2023-12-28T00:06:59;3.77;;;2.67;;
18505;SDS011;9382;53.242;10.438;2023-12-28T00:09:26;2.50;;;2.30;;
18505;SDS011;9382;53.242;10.438;2023-12-28T00:11:53;3.63;;;2.67;;
18505;SDS011;9382;53.242;10.438;2023-12-28T00:14:19;3.37;;;2.53;;
18505;SDS011;9382;53.242;10.438;2023-12-28T00:16:46;5.23;;;2.73;;
18505;SDS011;9382;53.242;10.438;2023-12-28T00:19:13;2.93;;;2.30;;
18505;SDS011;9382;53.242;10.438;2023-12-28T00:21:41;4.00;;;2.33;;
18505;SDS011;9382;53.242;10.438;2023-12-28T00:24:08;3.37;;;2.10;;
18505;SDS011;9382;53.242;10.438;2023-12-28T00:26:34;4.03;;;2.43;;
18505;SDS011;9382;53.242;10.438;2023-12-28T00:29:01;2.40;;;2.20;;
18505;SDS011;9382;53.242;10.438;2023-12-28T00:31:28;2.30;;;2.13;;
18505;SDS011;9382;53.242;10.438;2023-12-28T00:33:54;2.40;;;2.20;;
18505;SDS011;9382;53.242;10.438;2023-12-28T00:36:21;3.47;;;2.43;;
18505;SDS011;9382;53.242;10.438;2023-12-28T00:38:49;2.77;;;2.20;;
18505;SDS011;9382;53.242;10.438;2023-12-28T00:41:16;2.80;;;2.60;;
18505;SDS011;9382;53.242;10.438;2023-12-28T00:43:43;2.43;;;2.23;;
18505;SDS011;9382;53.242;10.438;2023-12-28T00:46:09;2.90;;;2.20;;
18505;SDS011;9382;53.242;10.438;2023-12-28T00:48:36;2.33;;;2.13;;
18505;SDS011;9382;53.242;10.438;2023-12-28T00:51:03;3.80;;;2.20;;
18505;SDS011;9382;53.242;10.438;2023-12-28T00:53:30;2.43;;;1.93;;
18505;SDS011;9382;53.242;10.438;2023-12-28T00:55:58;2.40;;;2.20;;
18505;SDS011;9382;53.242;10.438;2023-12-28T00:58:25;2.77;;;2.43;;
18505;SDS011;9382;53.242;10.438;2023-12-28T01:00:51;3.23;;;2.43;;
18505;SDS011;9382;53.242;10.438;2023-12-28T01:03:20;2.40;;;2.20;;
18505;SDS011;9382;53.242;10.438;2023-12-28T01:05:47;2.57;;;2.10;;
18505;SDS011;9382;53.242;10.438;2023-12-28T01:08:15;3.20;;;2.10;;
18505;SDS011;9382;53.242;10.438;2023-12-28T01:10:42;2.77;;;2.30;;
18505;SDS011;9382;53.242;10.438;2023-12-28T01:13:10;2.53;;;2.33;;
18505;SDS011;9382;53.242;10.438;2023-12-28T01:15:40;3.90;;;2.47;;
18505;SDS011;9382;53.242;10.438;2023-12-28T01:18:07;3.30;;;2.30;;
18505;SDS011;9382;53.242;10.438;2023-12-28T01:20:33;2.57;;;2.20;;
18505;SDS011;9382;53.242;10.438;2023-12-28T01:23:00;3.27;;;2.20;;
18505;SDS011;9382;53.242;10.438;2023-12-28T01:25:27;2.60;;;2.40;;
18505;SDS011;9382;53.242;10.438;2023-12-28T01:27:54;4.60;;;2.10;;
18505;SDS011;9382;53.242;10.438;2023-12-28T01:30:22;2.40;;;2.20;;
18505;SDS011;9382;53.242;10.438;2023-12-28T01:32:49;4.00;;;2.43;;
18505;SDS011;9382;53.242;10.438;2023-12-28T01:35:16;3.43;;;2.40;;
18505;SDS011;9382;53.242;10.438;2023-12-28T01:37:45;2.30;;;2.10;;
18505;SDS011;9382;53.242;10.438;2023-12-28T01:40:12;2.30;;;2.10;;
18505;SDS011;9382;53.242;10.438;2023-12-28T01:42:39;2.13;;;2.03;;
18505;SDS011;9382;53.242;10.438;2023-12-28T01:45:08;2.23;;;1.90;;
18505;SDS011;9382;53.242;10.438;2023-12-28T01:47:36;3.13;;;2.37;;
18505;SDS011;9382;53.242;10.438;2023-12-28T01:50:05;2.90;;;2.47;;
18505;SDS011;9382;53.242;10.438;2023-12-28T01:52:32;2.40;;;2.20;;
18505;SDS011;9382;53.242;10.438;2023-12-28T01:55:00;2.90;;;2.60;;
18505;SDS011;9382;53.242;10.438;2023-12-28T01:57:27;3.33;;;2.37;;
18505;SDS011;9382;53.242;10.438;2023-12-28T01:59:54;3.37;;;2.00;;
18505;SDS011;9382;53.242;10.438;2023-12-28T02:02:22;2.63;;;2.23;;
18505;SDS011;9382;53.242;10.438;2023-12-28T02:04:50;2.20;;;2.00;;
18505;SDS011;9382;53.242;10.438;2023-12-28T02:07:17;2.30;;;2.10;;
18505;SDS011;9382;53.242;10.438;2023-12-28T02:09:46;2.73;;;2.13;;
18505;SDS011;9382;53.242;10.438;2023-12-28T02:12:13;2.87;;;2.20;;
18505;SDS011;9382;53.242;10.438;2023-12-28T02:14:40;2.30;;;2.20;;
18505;SDS011;9382;53.242;10.438;2023-12-28T02:17:10;3.00;;;2.37;;
18505;SDS011;9382;53.242;10.438;2023-12-28T02:19:43;2.13;;;1.97;;
18505;SDS011;9382;53.242;10.438;2023-12-28T02:22:15;3.60;;;2.10;;
18505;SDS011;9382;53.242;10.438;2023-12-28T02:25:03;2.43;;;2.20;;
18505;SDS011;9382;53.242;10.438;2023-12-28T02:27:32;3.00;;;2.23;;
18505;SDS011;9382;53.242;10.438;2023-12-28T02:29:59;2.10;;;2.00;;
18505;SDS011;9382;53.242;10.438;2023-12-28T02:32:28;2.27;;;2.07;;
18505;SDS011;9382;53.242;10.438;2023-12-28T02:35:04;2.07;;;1.97;;
18505;SDS011;9382;53.242;10.438;2023-12-28T02:37:37;2.47;;;2.27;;
18505;SDS011;9382;53.242;10.438;2023-12-28T02:40:07;2.20;;;2.10;;
18505;SDS011;9382;53.242;10.438;2023-12-28T02:42:35;2.50;;;2.30;;
18505;SDS011;9382;53.242;10.438;2023-12-28T02:45:01;2.53;;;2.00;;
18505;SDS011;9382;53.242;10.438;2023-12-28T02:47:29;4.07;;;2.30;;
18505;SDS011;9382;53.242;10.438;2023-12-28T02:49:55;2.73;;;2.30;;
18505;SDS011;9382;53.242;10.438;2023-12-28T02:52:24;3.83;;;2.70;;
18505;SDS011;9382;53.242;10.438;2023-12-28T02:54:51;3.93;;;2.37;;
18505;SDS011;9382;53.242;10.438;2023-12-28T02:57:19;3.30;;;2.63;;
18505;SDS011;9382;53.242;10.438;2023-12-28T02:59:45;2.57;;;2.37;;
18505;SDS011;9382;53.242;10.438;2023-12-28T03:02:14;2.90;;;2.60;;
18505;SDS011;9382;53.242;10.438;2023-12-28T03:04:41;4.90;;;2.97;;
18505;SDS011;9382;53.242;10.438;2023-12-28T03:07:08;4.40;;;3.13;;
18505;SDS011;9382;53.242;10.438;2023-12-28T03:09:35;2.90;;;2.63;;
18505;SDS011;9382;53.242;10.438;2023-12-28T03:12:03;3.77;;;3.10;;
18505;SDS011;9382;53.242;10.438;2023-12-28T03:14:32;3.30;;;3.00;;
18505;SDS011;9382;53.242;10.438;2023-12-28T03:16:59;2.83;;;2.63;;
18505;SDS011;9382;53.242;10.438;2023-12-28T03:19:25;2.70;;;2.50;;
18505;SDS011;9382;53.242;10.438;2023-12-28T03:21:52;3.77;;;2.73;;
18505;SDS011;9382;53.242;10.438;2023-12-28T03:24:19;4.37;;;2.77;;
18505;SDS011;9382;53.242;10.438;2023-12-28T03:26:46;3.53;;;2.80;;
18505;SDS011;9382;53.242;10.438;2023-12-28T03:29:12;3.43;;;2.87;;
18505;SDS011;9382;53.242;10.438;2023-12-28T03:31:41;4.97;;;3.17;;
18505;SDS011;9382;53.242;10.438;2023-12-28T03:34:08;3.33;;;2.73;;
18505;SDS011;9382;53.242;10.438;2023-12-28T03:36:34;3.20;;;2.90;;
18505;SDS011;9382;53.242;10.438;2023-12-28T03:39:01;4.10;;;3.30;;
18505;SDS011;9382;53.242;10.438;2023-12-28T03:41:28;2.90;;;2.70;;
18505;SDS011;9382;53.242;10.438;2023-12-28T03:43:55;3.37;;;2.90;;
18505;SDS011;9382;53.242;10.438;2023-12-28T03:46:22;3.43;;;3.10;;
18505;SDS011;9382;53.242;10.438;2023-12-28T03:48:50;3.60;;;3.30;;
18505;SDS011;9382;53.242;10.438;2023-12-28T03:51:17;3.67;;;3.00;;
18505;SDS011;9382;53.242;10.438;2023-12-28T03:53:44;3.97;;;3.40;;
18505;SDS011;9382;53.242;10.438;2023-12-28T03:56:18;4.20;;;2.83;;
18505;SDS011;9382;53.242;10.438;2023-12-28T03:58:45;4.30;;;3.50;;
18505;SDS011;9382;53.242;10.438;2023-12-28T04:01:12;3.33;;;3.03;;
18505;SDS011;9382;53.242;10.438;2023-12-28T04:03:39;4.87;;;2.83;;
18505;SDS011;9382;53.242;10.438;2023-12-28T04:06:08;3.83;;;3.13;;
18505;SDS011;9382;53.242;10.438;2023-12-28T04:08:34;3.80;;;3.10;;
18505;SDS011;9382;53.242;10.438;2023-12-28T04:11:01;5.03;;;2.93;;
18505;SDS011;9382;53.242;10.438;2023-12-28T04:13:28;4.40;;;3.00;;
18505;SDS011;9382;53.242;10.438;2023-12-28T04:15:55;3.90;;;3.10;;
18505;SDS011;9382;53.242;10.438;2023-12-28T04:18:25;5.63;;;3.73;;
18505;SDS011;9382;53.242;10.438;2023-12-28T04:20:52;5.57;;;3.37;;
18505;SDS011;9382;53.242;10.438;2023-12-28T04:23:21;3.37;;;3.17;;
18505;SDS011;9382;53.242;10.438;2023-12-28T04:25:47;4.40;;;3.00;;
18505;SDS011;9382;53.242;10.438;2023-12-28T04:28:14;4.27;;;3.27;;
18505;SDS011;9382;53.242;10.438;2023-12-28T04:30:41;3.77;;;2.63;;
18505;SDS011;9382;53.242;10.438;2023-12-28T04:33:08;3.97;;;3.40;;
18505;SDS011;9382;53.242;10.438;2023-12-28T04:35:34;6.33;;;3.20;;
18505;SDS011;9382;53.242;10.438;2023-12-28T04:38:01;4.17;;;3.30;;
18505;SDS011;9382;53.242;10.438;2023-12-28T04:40:29;4.33;;;3.17;;
18505;SDS011;9382;53.242;10.438;2023-12-28T04:42:56;4.57;;;3.00;;
18505;SDS011;9382;53.242;10.438;2023-12-28T04:45:23;3.87;;;2.80;;
18505;SDS011;9382;53.242;10.438;2023-12-28T04:47:49;5.23;;;3.30;;
18505;SDS011;9382;53.242;10.438;2023-12-28T04:50:16;4.43;;;3.07;;
18505;SDS011;9382;53.242;10.438;2023-12-28T04:52:43;4.50;;;3.27;;
18505;SDS011;9382;53.242;10.438;2023-12-28T04:55:10;3.43;;;2.97;;
18505;SDS011;9382;53.242;10.438;2023-12-28T04:57:38;5.43;;;3.00;;
18505;SDS011;9382;53.242;10.438;2023-12-28T05:00:07;7.17;;;3.53;;
18505;SDS011;9382;53.242;10.438;2023-12-28T05:02:35;4.47;;;3.30;;
18505;SDS011;9382;53.242;10.438;2023-12-28T05:05:01;3.43;;;3.10;;
18505;SDS011;9382;53.242;10.438;2023-12-28T05:07:28;4.80;;;3.27;;
18505;SDS011;9382;53.242;10.438;2023-12-28T05:09:55;5.63;;;3.07;;
18505;SDS011;9382;53.242;10.438;2023-12-28T05:12:22;4.00;;;2.83;;
18505;SDS011;9382;53.242;10.438;2023-12-28T05:14:50;5.00;;;2.80;;
18505;SDS011;9382;53.242;10.438;2023-12-28T05:17:17;5.70;;;3.03;;
18505;SDS011;9382;53.242;10.438;2023-12-28T05:19:44;3.17;;;2.87;;
18505;SDS011;9382;53.242;10.438;2023-12-28T05:22:11;3.87;;;3.10;;
18505;SDS011;9382;53.242;10.438;2023-12-28T05:24:38;5.40;;;2.97;;
18505;SDS011;9382;53.242;10.438;2023-12-28T05:27:05;3.77;;;2.90;;
18505;SDS011;9382;53.242;10.438;2023-12-28T05:29:31;3.80;;;3.10;;
18505;SDS011;9382;53.242;10.438;2023-12-28T05:31:59;3.40;;;3.00;;
18505;SDS011;9382;53.242;10.438;2023-12-28T05:34:26;3.20;;;2.90;;
18505;SDS011;9382;53.242;10.438;2023-12-28T05:36:53;4.50;;;2.90;;
18505;SDS011;9382;53.242;10.438;2023-12-28T05:39:19;3.47;;;3.17;;
18505;SDS011;9382;53.242;10.438;2023-12-28T05:41:46;3.73;;;3.27;;
18505;SDS011;9382;53.242;10.438;2023-12-28T05:44:15;4.40;;;3.30;;
18505;SDS011;9382;53.242;10.438;2023-12-28T05:46:42;3.47;;;3.17;;
18505;SDS011;9382;53.242;10.438;2023-12-28T05:49:10;3.57;;;3.07;;
18505;SDS011;9382;53.242;10.438;2023-12-28T05:51:37;4.40;;;2.83;;
18505;SDS011;9382;53.242;10.438;2023-12-28T05:54:05;5.10;;;3.43;;
18505;SDS011;9382;53.242;10.438;2023-12-28T05:56:32;4.10;;;3.27;;
18505;SDS011;9382;53.242;10.438;2023-12-28T05:58:59;5.67;;;3.23;;
18505;SDS011;9382;53.242;10.438;2023-12-28T06:01:26;3.10;;;2.90;;
18505;SDS011;9382;53.242;10.438;2023-12-28T06:03:53;7.57;;;3.10;;
18505;SDS011;9382;53.242;10.438;2023-12-28T06:06:21;4.67;;;3.40;;
18505;SDS011;9382;53.242;10.438;2023-12-28T06:08:48;4.57;;;2.90;;
18505;SDS011;9382;53.242;10.438;2023-12-28T06:11:14;5.60;;;2.90;;
18505;SDS011;9382;53.242;10.438;2023-12-28T06:13:41;6.57;;;3.10;;
18505;SDS011;9382;53.242;10.438;2023-12-28T06:16:08;4.43;;;2.90;;
18505;SDS011;9382;53.242;10.438;2023-12-28T06:18:35;4.53;;;2.90;;
18505;SDS011;9382;53.242;10.438;2023-12-28T06:21:02;5.77;;;2.87;;
18505;SDS011;9382;53.242;10.438;2023-12-28T06:23:32;4.03;;;2.70;;
18505;SDS011;9382;53.242;10.438;2023-12-28T06:26:03;2.80;;;2.60;;
18505;SDS011;9382;53.242;10.438;2023-12-28T06:28:31;4.83;;;3.00;;
18505;SDS011;9382;53.242;10.438;2023-12-28T06:30:58;5.80;;;2.70;;
18505;SDS011;9382;53.242;10.438;2023-12-28T06:33:26;4.73;;;2.97;;
18505;SDS011;9382;53.242;10.438;2023-12-28T06:35:54;4.90;;;3.07;;
18505;SDS011;9382;53.242;10.438;2023-12-28T06:38:23;4.03;;;2.90;;
18505;SDS011;9382;53.242;10.438;2023-12-28T06:40:51;3.97;;;2.87;;
18505;SDS011;9382;53.242;10.438;2023-12-28T06:43:18;3.03;;;2.80;;
18505;SDS011;9382;53.242;10.438;2023-12-28T06:45:47;4.43;;;2.60;;
18505;SDS011;9382;53.242;10.438;2023-12-28T06:48:14;6.40;;;2.90;;
18505;SDS011;9382;53.242;10.438;2023-12-28T06:50:41;6.43;;;2.87;;
18505;SDS011;9382;53.242;10.438;2023-12-28T06:53:07;5.20;;;2.80;;
18505;SDS011;9382;53.242;10.438;2023-12-28T06:55:34;4.13;;;2.70;;
18505;SDS011;9382;53.242;10.438;2023-12-28T06:58:02;4.60;;;3.07;;
18505;SDS011;9382;53.242;10.438;2023-12-28T07:00:31;3.33;;;2.40;;
18505;SDS011;9382;53.242;10.438;2023-12-28T07:02:57;3.03;;;2.40;;
18505;SDS011;9382;53.242;10.438;2023-12-28T07:05:24;4.80;;;2.70;;
18505;SDS011;9382;53.242;10.438;2023-12-28T07:07:51;3.50;;;2.93;;
18505;SDS011;9382;53.242;10.438;2023-12-28T07:10:18;4.70;;;2.77;;
18505;SDS011;9382;53.242;10.438;2023-12-28T07:12:44;2.80;;;2.50;;
18505;SDS011;9382;53.242;10.438;2023-12-28T07:15:12;3.93;;;2.90;;
18505;SDS011;9382;53.242;10.438;2023-12-28T07:17:39;4.53;;;2.47;;
18505;SDS011;9382;53.242;10.438;2023-12-28T07:20:07;4.10;;;2.80;;
18505;SDS011;9382;53.242;10.438;2023-12-28T07:22:38;5.43;;;2.70;;
18505;SDS011;9382;53.242;10.438;2023-12-28T07:25:05;3.97;;;2.37;;
18505;SDS011;9382;53.242;10.438;2023-12-28T07:27:32;4.40;;;2.90;;
18505;SDS011;9382;53.242;10.438;2023-12-28T07:29:59;2.53;;;2.33;;
18505;SDS011;9382;53.242;10.438;2023-12-28T07:32:28;2.90;;;2.53;;
18505;SDS011;9382;53.242;10.438;2023-12-28T07:34:55;4.97;;;2.60;;
18505;SDS011;9382;53.242;10.438;2023-12-28T07:37:23;4.97;;;2.93;;
18505;SDS011;9382;53.242;10.438;2023-12-28T07:39:50;5.13;;;2.40;;
18505;SDS011;9382;53.242;10.438;2023-12-28T07:42:19;5.23;;;3.07;;
18505;SDS011;9382;53.242;10.438;2023-12-28T07:44:46;4.67;;;2.30;;
18505;SDS011;9382;53.242;10.438;2023-12-28T07:47:13;6.40;;;2.77;;
18505;SDS011;9382;53.242;10.438;2023-12-28T07:49:41;4.90;;;2.53;;
18505;SDS011;9382;53.242;10.438;2023-12-28T07:52:08;4.37;;;2.40;;
18505;SDS011;9382;53.242;10.438;2023-12-28T07:54:35;3.70;;;2.37;;
18505;SDS011;9382;53.242;10.438;2023-12-28T07:57:02;4.37;;;2.43;;
18505;SDS011;9382;53.242;10.438;2023-12-28T07:59:29;4.13;;;2.63;;
18505;SDS011;9382;53.242;10.438;2023-12-28T08:01:56;3.33;;;2.50;;
18505;SDS011;9382;53.242;10.438;2023-12-28T08:04:23;6.10;;;2.63;;
18505;SDS011;9382;53.242;10.438;2023-12-28T08:06:51;4.93;;;2.63;;
18505;SDS011;9382;53.242;10.438;2023-12-28T08:09:18;4.33;;;2.53;;
18505;SDS011;9382;53.242;10.438;2023-12-28T08:11:45;4.40;;;2.37;;
18505;SDS011;9382;53.242;10.438;2023-12-28T08:14:12;4.53;;;2.70;;
18505;SDS011;9382;53.242;10.438;2023-12-28T08:16:38;2.70;;;2.27;;
18505;SDS011;9382;53.242;10.438;2023-12-28T08:19:06;3.13;;;2.40;;
18505;SDS011;9382;53.242;10.438;2023-12-28T08:21:32;5.17;;;2.33;;
18505;SDS011;9382;53.242;10.438;2023-12-28T08:24:01;5.53;;;2.50;;
18505;SDS011;9382;53.242;10.438;2023-12-28T08:26:28;3.37;;;2.57;;
18505;SDS011;9382;53.242;10.438;2023-12-28T08:28:57;2.67;;;2.20;;
18505;SDS011;9382;53.242;10.438;2023-12-28T08:31:24;4.37;;;2.27;;
18505;SDS011;9382;53.242;10.438;2023-12-28T08:33:51;2.40;;;2.20;;
18505;SDS011;9382;53.242;10.438;2023-12-28T08:36:18;4.53;;;2.30;;
18505;SDS011;9382;53.242;10.438;2023-12-28T08:38:45;3.00;;;2.53;;
18505;SDS011;9382;53.242;10.438;2023-12-28T08:41:18;6.37;;;2.43;;
18505;SDS011;9382;53.242;10.438;2023-12-28T08:43:45;10.53;;;2.77;;
18505;SDS011;9382;53.242;10.438;2023-12-28T08:46:12;4.00;;;2.50;;
18505;SDS011;9382;53.242;10.438;2023-12-28T08:48:39;7.47;;;2.53;;
18505;SDS011;9382;53.242;10.438;2023-12-28T08:51:06;5.37;;;2.40;;
18505;SDS011;9382;53.242;10.438;2023-12-28T08:53:35;5.30;;;2.27;;
18505;SDS011;9382;53.242;10.438;2023-12-28T08:56:01;3.40;;;2.30;;
18505;SDS011;9382;53.242;10.438;2023-12-28T08:58:31;5.27;;;2.50;;
18505;SDS011;9382;53.242;10.438;2023-12-28T09:00:57;2.60;;;2.10;;
18505;SDS011;9382;53.242;10.438;2023-12-28T09:03:24;5.43;;;2.67;;
18505;SDS011;9382;53.242;10.438;2023-12-28T09:05:51;6.90;;;2.10;;
18505;SDS011;9382;53.242;10.438;2023-12-28T09:08:18;5.30;;;2.30;;
18505;SDS011;9382;53.242;10.438;2023-12-28T09:10:45;6.67;;;2.37;;
18505;SDS011;9382;53.242;10.438;2023-12-28T09:13:14;3.23;;;2.07;;
18505;SDS011;9382;53.242;10.438;2023-12-28T09:15:43;3.73;;;2.23;;
18505;SDS011;9382;53.242;10.438;2023-12-28T09:18:11;3.87;;;2.10;;
18505;SDS011;9382;53.242;10.438;2023-12-28T09:20:37;6.63;;;2.30;;
18505;SDS011;9382;53.242;10.438;2023-12-28T09:23:05;4.50;;;2.33;;
18505;SDS011;9382;53.242;10.438;2023-12-28T09:25:32;4.63;;;2.30;;
18505;SDS011;9382;53.242;10.438;2023-12-28T09:27:59;3.63;;;2.30;;
18505;SDS011;9382;53.242;10.438;2023-12-28T09:30:26;4.00;;;2.00;;
18505;SDS011;9382;53.242;10.438;2023-12-28T09:32:54;6.20;;;2.40;;
18505;SDS011;9382;53.242;10.438;2023-12-28T09:35:21;3.50;;;1.90;;
18505;SDS011;9382;53.242;10.438;2023-12-28T09:37:47;5.73;;;2.10;;
18505;SDS011;9382;53.242;10.438;2023-12-28T09:40:14;4.67;;;1.80;;
18505;SDS011;9382;53.242;10.438;2023-12-28T09:42:43;4.40;;;2.10;;
18505;SDS011;9382;53.242;10.438;2023-12-28T09:45:16;6.97;;;2.30;;
18505;SDS011;9382;53.242;10.438;2023-12-28T09:47:43;4.37;;;2.10;;
18505;SDS011;9382;53.242;10.438;2023-12-28T09:50:12;5.77;;;2.33;;
18505;SDS011;9382;53.242;10.438;2023-12-28T09:52:42;5.20;;;2.17;;
18505;SDS011;9382;53.242;10.438;2023-12-28T09:55:11;11.40;;;2.27;;
18505;SDS011;9382;53.242;10.438;2023-12-28T09:57:37;4.33;;;2.30;;
18505;SDS011;9382;53.242;10.438;2023-12-28T10:00:06;3.60;;;1.90;;
18505;SDS011;9382;53.242;10.438;2023-12-28T10:02:37;3.93;;;2.20;;
18505;SDS011;9382;53.242;10.438;2023-12-28T10:05:06;4.73;;;1.80;;
18505;SDS011;9382;53.242;10.438;2023-12-28T10:07:35;4.20;;;2.20;;
18505;SDS011;9382;53.242;10.438;2023-12-28T10:10:07;5.07;;;1.80;;
18505;SDS011;9382;53.242;10.438;2023-12-28T10:12:35;3.43;;;2.10;;
18505;SDS011;9382;53.242;10.438;2023-12-28T10:15:02;3.03;;;1.90;;
18505;SDS011;9382;53.242;10.438;2023-12-28T10:17:32;4.93;;;2.10;;
18505;SDS011;9382;53.242;10.438;2023-12-28T10:19:59;7.17;;;2.57;;
18505;SDS011;9382;53.242;10.438;2023-12-28T10:22:29;4.03;;;1.97;;
18505;SDS011;9382;53.242;10.438;2023-12-28T10:24:59;6.10;;;2.60;;
18505;SDS011;9382;53.242;10.438;2023-12-28T10:27:26;5.47;;;2.00;;
18505;SDS011;9382;53.242;10.438;2023-12-28T10:29:53;3.57;;;1.97;;
18505;SDS011;9382;53.242;10.438;2023-12-28T10:32:22;3.47;;;1.80;;
18505;SDS011;9382;53.242;10.438;2023-12-28T10:34:50;5.93;;;2.00;;
18505;SDS011;9382;53.242;10.438;2023-12-28T10:37:20;3.43;;;2.20;;
18505;SDS011;9382;53.242;10.438;2023-12-28T10:39:48;4.80;;;2.00;;
18505;SDS011;9382;53.242;10.438;2023-12-28T10:42:20;6.03;;;2.40;;
18505;SDS011;9382;53.242;10.438;2023-12-28T10:44:55;5.00;;;1.90;;
18505;SDS011;9382;53.242;10.438;2023-12-28T10:47:28;6.73;;;2.10;;
18505;SDS011;9382;53.242;10.438;2023-12-28T10:49:58;5.10;;;2.20;;
18505;SDS011;9382;53.242;10.438;2023-12-28T10:52:30;3.90;;;2.53;;
18505;SDS011;9382;53.242;10.438;2023-12-28T10:55:00;4.17;;;2.07;;
18505;SDS011;9382;53.242;10.438;2023-12-28T10:57:53;4.73;;;2.27;;
18505;SDS011;9382;53.242;10.438;2023-12-28T11:00:25;4.20;;;2.00;;
18505;SDS011;9382;53.242;10.438;2023-12-28T11:02:58;3.77;;;1.90;;
18505;SDS011;9382;53.242;10.438;2023-12-28T11:05:30;6.57;;;2.70;;
18505;SDS011;9382;53.242;10.438;2023-12-28T11:07:58;4.23;;;2.00;;
18505;SDS011;9382;53.242;10.438;2023-12-28T11:10:26;6.97;;;2.40;;
18505;SDS011;9382;53.242;10.438;2023-12-28T11:12:56;5.10;;;2.30;;
18505;SDS011;9382;53.242;10.438;2023-12-28T11:15:23;7.53;;;2.40;;
18505;SDS011;9382;53.242;10.438;2023-12-28T11:17:52;4.73;;;2.10;;
18505;SDS011;9382;53.242;10.438;2023-12-28T11:20:19;4.73;;;2.40;;
18505;SDS011;9382;53.242;10.438;2023-12-28T11:22:51;7.83;;;2.47;;
18505;SDS011;9382;53.242;10.438;2023-12-28T11:25:18;3.70;;;2.20;;
18505;SDS011;9382;53.242;10.438;2023-12-28T11:27:45;4.37;;;2.53;;
18505;SDS011;9382;53.242;10.438;2023-12-28T11:30:14;6.87;;;2.20;;
18505;SDS011;9382;53.242;10.438;2023-12-28T11:32:42;6.23;;;2.30;;
18505;SDS011;9382;53.242;10.438;2023-12-28T11:35:10;4.40;;;2.47;;
18505;SDS011;9382;53.242;10.438;2023-12-28T11:37:39;8.03;;;2.43;;
18505;SDS011;9382;53.242;10.438;2023-12-28T11:40:09;5.57;;;2.23;;
18505;SDS011;9382;53.242;10.438;2023-12-28T11:42:46;8.93;;;2.40;;
18505;SDS011;9382;53.242;10.438;2023-12-28T11:45:17;4.70;;;2.37;;
18505;SDS011;9382;53.242;10.438;2023-12-28T11:47:46;6.27;;;2.23;;
18505;SDS011;9382;53.242;10.438;2023-12-28T11:50:13;6.20;;;2.20;;
18505;SDS011;9382;53.242;10.438;2023-12-28T11:52:40;8.43;;;2.80;;
18505;SDS011;9382;53.242;10.438;2023-12-28T11:55:07;9.10;;;2.90;;
18505;SDS011;9382;53.242;10.438;2023-12-28T11:57:35;7.97;;;2.30;;
18505;SDS011;9382;53.242;10.438;2023-12-28T12:00:04;6.77;;;2.10;;
18505;SDS011;9382;53.242;10.438;2023-12-28T12:02:35;6.10;;;2.70;;
18505;SDS011;9382;53.242;10.438;2023-12-28T12:05:02;5.90;;;2.37;;
18505;SDS011;9382;53.242;10.438;2023-12-28T12:07:29;3.83;;;2.40;;
18505;SDS011;9382;53.242;10.438;2023-12-28T12:09:56;6.87;;;2.53;;
18505;SDS011;9382;53.242;10.438;2023-12-28T12:12:23;4.93;;;2.30;;
18505;SDS011;9382;53.242;10.438;2023-12-28T12:14:51;8.70;;;2.80;;
18505;SDS011;9382;53.242;10.438;2023-12-28T12:17:18;5.00;;;2.30;;
18505;SDS011;9382;53.242;10.438;2023-12-28T12:19:46;5.20;;;2.23;;
18505;SDS011;9382;53.242;10.438;2023-12-28T12:22:15;5.37;;;2.63;;
18505;SDS011;9382;53.242;10.438;2023-12-28T12:24:44;11.07;;;2.60;;
18505;SDS011;9382;53.242;10.438;2023-12-28T12:27:13;4.53;;;2.43;;
18505;SDS011;9382;53.242;10.438;2023-12-28T12:29:40;5.47;;;2.77;;
18505;SDS011;9382;53.242;10.438;2023-12-28T12:32:07;8.00;;;2.63;;
18505;SDS011;9382;53.242;10.438;2023-12-28T12:34:34;5.20;;;2.67;;
18505;SDS011;9382;53.242;10.438;2023-12-28T12:37:05;6.57;;;2.80;;
18505;SDS011;9382;53.242;10.438;2023-12-28T12:39:32;7.17;;;2.87;;
18505;SDS011;9382;53.242;10.438;2023-12-28T12:41:59;7.00;;;2.50;;
18505;SDS011;9382;53.242;10.438;2023-12-28T12:44:27;5.73;;;2.50;;
18505;SDS011;9382;53.242;10.438;2023-12-28T12:46:58;9.47;;;2.67;;
18505;SDS011;9382;53.242;10.438;2023-12-28T12:49:25;3.63;;;2.20;;
18505;SDS011;9382;53.242;10.438;2023-12-28T12:51:52;6.87;;;2.60;;
18505;SDS011;9382;53.242;10.438;2023-12-28T12:54:20;5.93;;;2.53;;
18505;SDS011;9382;53.242;10.438;2023-12-28T12:56:47;6.13;;;2.23;;
18505;SDS011;9382;53.242;10.438;2023-12-28T12:59:15;6.47;;;2.20;;
18505;SDS011;9382;53.242;10.438;2023-12-28T13:01:43;8.13;;;2.80;;
18505;SDS011;9382;53.242;10.438;2023-12-28T13:04:10;8.87;;;2.50;;
18505;SDS011;9382;53.242;10.438;2023-12-28T13:06:39;4.93;;;2.40;;
18505;SDS011;9382;53.242;10.438;2023-12-28T13:09:06;7.23;;;2.93;;
18505;SDS011;9382;53.242;10.438;2023-12-28T13:11:34;4.47;;;2.30;;
18505;SDS011;9382;53.242;10.438;2023-12-28T13:14:01;7.67;;;2.70;;
18505;SDS011;9382;53.242;10.438;2023-12-28T13:16:29;7.00;;;3.20;;
18505;SDS011;9382;53.242;10.438;2023-12-28T13:18:56;9.70;;;2.70;;
18505;SDS011;9382;53.242;10.438;2023-12-28T13:21:22;9.73;;;2.50;;
18505;SDS011;9382;53.242;10.438;2023-12-28T13:23:49;7.00;;;2.37;;
18505;SDS011;9382;53.242;10.438;2023-12-28T13:26:18;8.47;;;2.83;;
18505;SDS011;9382;53.242;10.438;2023-12-28T13:28:46;8.60;;;2.87;;
18505;SDS011;9382;53.242;10.438;2023-12-28T13:31:13;9.53;;;2.40;;
18505;SDS011;9382;53.242;10.438;2023-12-28T13:33:40;9.77;;;2.47;;
18505;SDS011;9382;53.242;10.438;2023-12-28T13:36:06;6.87;;;2.40;;
18505;SDS011;9382;53.242;10.438;2023-12-28T13:38:34;11.83;;;2.80;;
18505;SDS011;9382;53.242;10.438;2023-12-28T13:41:00;8.87;;;2.50;;
18505;SDS011;9382;53.242;10.438;2023-12-28T13:43:27;7.73;;;2.70;;
18505;SDS011;9382;53.242;10.438;2023-12-28T13:46:03;11.40;;;2.63;;
18505;SDS011;9382;53.242;10.438;2023-12-28T13:48:34;5.47;;;2.40;;
18505;SDS011;9382;53.242;10.438;2023-12-28T13:51:04;5.07;;;2.47;;
18505;SDS011;9382;53.242;10.438;2023-12-28T13:53:30;5.90;;;2.43;;
18505;SDS011;9382;53.242;10.438;2023-12-28T13:56:00;9.27;;;2.93;;
18505;SDS011;9382;53.242;10.438;2023-12-28T13:58:29;7.23;;;2.70;;
18505;SDS011;9382;53.242;10.438;2023-12-28T14:00:55;10.70;;;2.73;;
18505;SDS011;9382;53.242;10.438;2023-12-28T14:03:24;5.70;;;3.00;;
18505;SDS011;9382;53.242;10.438;2023-12-28T14:05:51;10.23;;;3.03;;
18505;SDS011;9382;53.242;10.438;2023-12-28T14:08:18;13.47;;;3.47;;
18505;SDS011;9382;53.242;10.438;2023-12-28T14:10:47;5.90;;;2.63;;
18505;SDS011;9382;53.242;10.438;2023-12-28T14:13:14;5.80;;;2.63;;
18505;SDS011;9382;53.242;10.438;2023-12-28T14:15:40;5.27;;;2.60;;
18505;SDS011;9382;53.242;10.438;2023-12-28T14:18:09;5.47;;;2.80;;
18505;SDS011;9382;53.242;10.438;2023-12-28T14:23:45;5.83;;;2.60;;
18505;SDS011;9382;53.242;10.438;2023-12-28T14:26:12;4.27;;;2.20;;
18505;SDS011;9382;53.242;10.438;2023-12-28T14:28:43;8.97;;;2.90;;
18505;SDS011;9382;53.242;10.438;2023-12-28T14:31:11;5.07;;;2.40;;
18505;SDS011;9382;53.242;10.438;2023-12-28T14:33:40;7.50;;;2.93;;
18505;SDS011;9382;53.242;10.438;2023-12-28T14:36:09;6.97;;;2.97;;
18505;SDS011;9382;53.242;10.438;2023-12-28T14:38:53;7.97;;;2.70;;
18505;SDS011;9382;53.242;10.438;2023-12-28T14:41:21;9.60;;;2.90;;
18505;SDS011;9382;53.242;10.438;2023-12-28T14:43:48;7.13;;;2.80;;
18505;SDS011;9382;53.242;10.438;2023-12-28T14:46:15;4.30;;;2.63;;
18505;SDS011;9382;53.242;10.438;2023-12-28T14:48:42;6.87;;;2.90;;
18505;SDS011;9382;53.242;10.438;2023-12-28T14:51:09;5.73;;;2.50;;
18505;SDS011;9382;53.242;10.438;2023-12-28T14:53:36;7.30;;;2.57;;
18505;SDS011;9382;53.242;10.438;2023-12-28T14:56:04;7.53;;;2.77;;